sensor_id;sensor_type;location;lat;lon;timestamp;P1;durP1;ratioP1;P2;durP2;ratioP2
11139;SDS011;5624;49.388;11.350;2023-03-18T00:01:00;5.50;;;3.03;;
11139;SDS011;5624;49.388;11.350;2023-03-18T00:03:28;6.73;;;3.80;;
11139;SDS011;5624;49.388;11.350;2023-03-18T00:08:29;7.00;;;3.50;;
11139;SDS011;5624;49.388;11.350;2023-03-18T00:10:56;5.63;;;3.50;;
11139;SDS011;5624;49.388;11.350;2023-03-18T00:13:23;7.60;;;3.43;;
11139;SDS011;5624;49.388;11.350;2023-03-18T00:15:52;5.57;;;3.03;;
11139;SDS011;5624;49.388;11.350;2023-03-18T00:18:19;7.47;;;3.00;;
11139;SDS011;5624;49.388;11.350;2023-03-18T00:20:44;6.30;;;3.10;;
11139;SDS011;5624;49.388;11.350;2023-03-18T00:23:10;6.87;;;3.17;;
11139;SDS011;5624;49.388;11.350;2023-03-18T00:25:37;6.93;;;3.73;;
11139;SDS011;5624;49.388;11.350;2023-03-18T00:28:06;6.50;;;3.70;;
11139;SDS011;5624;49.388;11.350;2023-03-18T00:30:33;6.33;;;3.70;;
11139;SDS011;5624;49.388;11.350;2023-03-18T00:33:01;4.90;;;3.00;;
11139;SDS011;5624;49.388;11.350;2023-03-18T00:35:27;6.93;;;4.00;;
11139;SDS011;5624;49.388;11.350;2023-03-18T00:37:54;6.50;;;3.57;;
11139;SDS011;5624;49.388;11.350;2023-03-18T00:40:21;6.83;;;3.50;;
11139;SDS011;5624;49.388;11.350;2023-03-18T00:42:53;4.73;;;3.17;;
11139;SDS011;5624;49.388;11.350;2023-03-18T00:45:25;5.20;;;3.43;;
11139;SDS011;5624;49.388;11.350;2023-03-18T00:47:51;5.00;;;3.30;;
11139;SDS011;5624;49.388;11.350;2023-03-18T00:50:17;6.00;;;3.50;;
11139;SDS011;5624;49.388;11.350;2023-03-18T00:52:43;6.23;;;3.33;;
11139;SDS011;5624;49.388;11.350;2023-03-18T00:55:09;6.37;;;3.43;;
11139;SDS011;5624;49.388;11.350;2023-03-18T00:57:35;4.47;;;3.47;;
11139;SDS011;5624;49.388;11.350;2023-03-18T01:00:01;5.50;;;3.67;;
11139;SDS011;5624;49.388;11.350;2023-03-18T01:02:30;6.10;;;3.80;;
11139;SDS011;5624;49.388;11.350;2023-03-18T01:04:56;5.63;;;3.73;;
11139;SDS011;5624;49.388;11.350;2023-03-18T01:07:22;6.10;;;3.73;;
11139;SDS011;5624;49.388;11.350;2023-03-18T01:09:48;5.57;;;3.80;;
11139;SDS011;5624;49.388;11.350;2023-03-18T01:12:13;5.80;;;3.50;;
11139;SDS011;5624;49.388;11.350;2023-03-18T01:14:39;6.27;;;3.43;;
11139;SDS011;5624;49.388;11.350;2023-03-18T01:17:06;5.73;;;3.83;;
11139;SDS011;5624;49.388;11.350;2023-03-18T01:19:32;6.70;;;3.77;;
11139;SDS011;5624;49.388;11.350;2023-03-18T01:21:58;5.47;;;3.70;;
11139;SDS011;5624;49.388;11.350;2023-03-18T01:24:24;5.80;;;3.30;;
11139;SDS011;5624;49.388;11.350;2023-03-18T01:26:51;6.80;;;3.63;;
11139;SDS011;5624;49.388;11.350;2023-03-18T01:29:17;4.57;;;3.23;;
11139;SDS011;5624;49.388;11.350;2023-03-18T01:31:44;5.77;;;3.00;;
11139;SDS011;5624;49.388;11.350;2023-03-18T01:34:11;5.80;;;3.37;;
11139;SDS011;5624;49.388;11.350;2023-03-18T01:36:38;6.13;;;3.60;;
11139;SDS011;5624;49.388;11.350;2023-03-18T01:39:04;5.50;;;3.03;;
11139;SDS011;5624;49.388;11.350;2023-03-18T01:41:30;5.90;;;3.30;;
11139;SDS011;5624;49.388;11.350;2023-03-18T01:43:56;6.60;;;3.40;;
11139;SDS011;5624;49.388;11.350;2023-03-18T01:46:30;6.93;;;2.87;;
11139;SDS011;5624;49.388;11.350;2023-03-18T01:48:56;5.03;;;3.30;;
11139;SDS011;5624;49.388;11.350;2023-03-18T01:51:23;6.87;;;3.07;;
11139;SDS011;5624;49.388;11.350;2023-03-18T01:53:50;5.30;;;2.97;;
11139;SDS011;5624;49.388;11.350;2023-03-18T01:56:18;5.63;;;3.40;;
11139;SDS011;5624;49.388;11.350;2023-03-18T01:58:45;4.63;;;3.63;;
11139;SDS011;5624;49.388;11.350;2023-03-18T02:01:29;5.13;;;3.53;;
11139;SDS011;5624;49.388;11.350;2023-03-18T02:04:12;10.60;;;3.27;;
11139;SDS011;5624;49.388;11.350;2023-03-18T02:06:39;5.33;;;2.80;;
11139;SDS011;5624;49.388;11.350;2023-03-18T02:09:05;4.73;;;2.90;;
11139;SDS011;5624;49.388;11.350;2023-03-18T02:11:32;6.13;;;3.17;;
11139;SDS011;5624;49.388;11.350;2023-03-18T02:14:01;6.67;;;3.20;;
11139;SDS011;5624;49.388;11.350;2023-03-18T02:16:36;6.27;;;3.30;;
11139;SDS011;5624;49.388;11.350;2023-03-18T02:19:11;6.57;;;2.97;;
11139;SDS011;5624;49.388;11.350;2023-03-18T02:27:36;9.57;;;5.03;;
11139;SDS011;5624;49.388;11.350;2023-03-18T02:30:07;11.67;;;6.17;;
11139;SDS011;5624;49.388;11.350;2023-03-18T02:32:37;10.00;;;5.20;;
11139;SDS011;5624;49.388;11.350;2023-03-18T02:35:06;9.53;;;5.17;;
11139;SDS011;5624;49.388;11.350;2023-03-18T02:37:34;6.93;;;4.43;;
11139;SDS011;5624;49.388;11.350;2023-03-18T02:40:17;6.70;;;4.57;;
11139;SDS011;5624;49.388;11.350;2023-03-18T02:42:51;5.57;;;3.73;;
11139;SDS011;5624;49.388;11.350;2023-03-18T02:45:32;7.13;;;4.30;;
11139;SDS011;5624;49.388;11.350;2023-03-18T02:48:06;6.00;;;3.43;;
11139;SDS011;5624;49.388;11.350;2023-03-18T02:50:36;9.07;;;4.07;;
11139;SDS011;5624;49.388;11.350;2023-03-18T02:53:03;7.67;;;3.80;;
11139;SDS011;5624;49.388;11.350;2023-03-18T02:55:29;6.17;;;3.53;;
11139;SDS011;5624;49.388;11.350;2023-03-18T02:57:55;6.47;;;3.83;;
11139;SDS011;5624;49.388;11.350;2023-03-18T03:00:21;5.57;;;3.53;;
11139;SDS011;5624;49.388;11.350;2023-03-18T03:02:46;5.60;;;3.90;;
11139;SDS011;5624;49.388;11.350;2023-03-18T03:05:12;6.37;;;4.00;;
11139;SDS011;5624;49.388;11.350;2023-03-18T03:07:37;6.93;;;4.00;;
11139;SDS011;5624;49.388;11.350;2023-03-18T03:10:04;7.60;;;4.20;;
11139;SDS011;5624;49.388;11.350;2023-03-18T03:12:30;5.63;;;3.33;;
11139;SDS011;5624;49.388;11.350;2023-03-18T03:14:56;8.83;;;3.67;;
11139;SDS011;5624;49.388;11.350;2023-03-18T03:17:22;6.80;;;3.87;;
11139;SDS011;5624;49.388;11.350;2023-03-18T03:19:48;7.30;;;4.33;;
11139;SDS011;5624;49.388;11.350;2023-03-18T03:22:14;6.20;;;4.33;;
11139;SDS011;5624;49.388;11.350;2023-03-18T03:24:41;6.70;;;4.07;;
11139;SDS011;5624;49.388;11.350;2023-03-18T03:27:07;6.73;;;3.40;;
11139;SDS011;5624;49.388;11.350;2023-03-18T03:29:33;6.03;;;3.70;;
11139;SDS011;5624;49.388;11.350;2023-03-18T03:31:59;5.83;;;3.83;;
11139;SDS011;5624;49.388;11.350;2023-03-18T03:34:24;6.20;;;3.53;;
11139;SDS011;5624;49.388;11.350;2023-03-18T03:36:50;5.83;;;3.90;;
11139;SDS011;5624;49.388;11.350;2023-03-18T03:39:15;6.97;;;4.43;;
11139;SDS011;5624;49.388;11.350;2023-03-18T03:41:41;7.27;;;4.17;;
11139;SDS011;5624;49.388;11.350;2023-03-18T03:44:07;5.63;;;4.20;;
11139;SDS011;5624;49.388;11.350;2023-03-18T03:46:32;7.17;;;4.53;;
11139;SDS011;5624;49.388;11.350;2023-03-18T03:48:58;11.87;;;5.00;;
11139;SDS011;5624;49.388;11.350;2023-03-18T03:51:23;7.40;;;4.63;;
11139;SDS011;5624;49.388;11.350;2023-03-18T03:53:49;10.00;;;4.53;;
11139;SDS011;5624;49.388;11.350;2023-03-18T03:56:14;7.30;;;4.33;;
11139;SDS011;5624;49.388;11.350;2023-03-18T03:58:41;9.23;;;4.33;;
11139;SDS011;5624;49.388;11.350;2023-03-18T04:01:07;6.90;;;4.27;;
11139;SDS011;5624;49.388;11.350;2023-03-18T04:03:33;8.63;;;4.90;;
11139;SDS011;5624;49.388;11.350;2023-03-18T04:05:58;6.23;;;4.20;;
11139;SDS011;5624;49.388;11.350;2023-03-18T04:08:24;7.50;;;4.30;;
11139;SDS011;5624;49.388;11.350;2023-03-18T04:10:50;8.07;;;4.43;;
11139;SDS011;5624;49.388;11.350;2023-03-18T04:13:15;6.93;;;4.10;;
11139;SDS011;5624;49.388;11.350;2023-03-18T04:15:41;8.57;;;4.63;;
11139;SDS011;5624;49.388;11.350;2023-03-18T04:18:06;7.90;;;4.90;;
11139;SDS011;5624;49.388;11.350;2023-03-18T04:20:33;8.83;;;4.53;;
11139;SDS011;5624;49.388;11.350;2023-03-18T04:23:00;9.10;;;4.17;;
11139;SDS011;5624;49.388;11.350;2023-03-18T04:25:26;7.87;;;4.50;;
11139;SDS011;5624;49.388;11.350;2023-03-18T04:27:53;9.77;;;5.17;;
11139;SDS011;5624;49.388;11.350;2023-03-18T04:30:18;6.73;;;4.57;;
11139;SDS011;5624;49.388;11.350;2023-03-18T04:32:44;7.37;;;4.60;;
11139;SDS011;5624;49.388;11.350;2023-03-18T04:35:10;8.50;;;5.03;;
11139;SDS011;5624;49.388;11.350;2023-03-18T04:37:36;7.50;;;4.90;;
11139;SDS011;5624;49.388;11.350;2023-03-18T04:40:02;8.10;;;5.37;;
11139;SDS011;5624;49.388;11.350;2023-03-18T04:42:29;9.00;;;5.07;;
11139;SDS011;5624;49.388;11.350;2023-03-18T04:44:55;10.60;;;5.57;;
11139;SDS011;5624;49.388;11.350;2023-03-18T04:47:21;8.87;;;4.83;;
11139;SDS011;5624;49.388;11.350;2023-03-18T04:49:47;7.40;;;4.60;;
11139;SDS011;5624;49.388;11.350;2023-03-18T04:52:13;7.37;;;4.80;;
11139;SDS011;5624;49.388;11.350;2023-03-18T04:54:40;7.33;;;4.77;;
11139;SDS011;5624;49.388;11.350;2023-03-18T04:57:06;8.43;;;5.23;;
11139;SDS011;5624;49.388;11.350;2023-03-18T04:59:32;9.17;;;5.17;;
11139;SDS011;5624;49.388;11.350;2023-03-18T05:01:58;8.50;;;5.00;;
11139;SDS011;5624;49.388;11.350;2023-03-18T05:04:24;7.47;;;5.20;;
11139;SDS011;5624;49.388;11.350;2023-03-18T05:06:50;8.27;;;5.20;;
11139;SDS011;5624;49.388;11.350;2023-03-18T05:09:16;9.07;;;5.27;;
11139;SDS011;5624;49.388;11.350;2023-03-18T05:11:42;8.20;;;5.23;;
11139;SDS011;5624;49.388;11.350;2023-03-18T05:14:08;9.33;;;5.27;;
11139;SDS011;5624;49.388;11.350;2023-03-18T05:16:33;11.47;;;5.50;;
11139;SDS011;5624;49.388;11.350;2023-03-18T05:19:00;8.57;;;5.43;;
11139;SDS011;5624;49.388;11.350;2023-03-18T05:21:26;11.70;;;5.17;;
11139;SDS011;5624;49.388;11.350;2023-03-18T05:23:52;8.63;;;5.30;;
11139;SDS011;5624;49.388;11.350;2023-03-18T05:26:17;9.57;;;5.20;;
11139;SDS011;5624;49.388;11.350;2023-03-18T05:28:43;9.97;;;5.60;;
11139;SDS011;5624;49.388;11.350;2023-03-18T05:31:08;8.33;;;5.43;;
11139;SDS011;5624;49.388;11.350;2023-03-18T05:33:34;9.00;;;4.20;;
11139;SDS011;5624;49.388;11.350;2023-03-18T05:36:00;9.70;;;5.23;;
11139;SDS011;5624;49.388;11.350;2023-03-18T05:38:26;8.07;;;4.47;;
11139;SDS011;5624;49.388;11.350;2023-03-18T05:40:52;8.07;;;4.50;;
11139;SDS011;5624;49.388;11.350;2023-03-18T05:43:18;7.27;;;5.00;;
11139;SDS011;5624;49.388;11.350;2023-03-18T05:45:44;7.47;;;5.23;;
11139;SDS011;5624;49.388;11.350;2023-03-18T05:48:09;9.77;;;5.47;;
11139;SDS011;5624;49.388;11.350;2023-03-18T05:50:36;10.40;;;5.40;;
11139;SDS011;5624;49.388;11.350;2023-03-18T05:53:05;7.93;;;4.60;;
11139;SDS011;5624;49.388;11.350;2023-03-18T05:55:32;9.23;;;5.23;;
11139;SDS011;5624;49.388;11.350;2023-03-18T05:57:59;8.57;;;5.03;;
11139;SDS011;5624;49.388;11.350;2023-03-18T06:00:28;9.97;;;5.43;;
11139;SDS011;5624;49.388;11.350;2023-03-18T06:02:55;9.40;;;5.30;;
11139;SDS011;5624;49.388;11.350;2023-03-18T06:05:22;10.40;;;5.93;;
11139;SDS011;5624;49.388;11.350;2023-03-18T06:07:49;11.30;;;6.80;;
11139;SDS011;5624;49.388;11.350;2023-03-18T06:10:15;9.43;;;5.77;;
11139;SDS011;5624;49.388;11.350;2023-03-18T06:12:42;7.97;;;5.43;;
11139;SDS011;5624;49.388;11.350;2023-03-18T06:15:08;9.33;;;6.00;;
11139;SDS011;5624;49.388;11.350;2023-03-18T06:17:36;15.27;;;8.13;;
11139;SDS011;5624;49.388;11.350;2023-03-18T06:20:02;14.13;;;8.10;;
11139;SDS011;5624;49.388;11.350;2023-03-18T06:22:29;29.20;;;15.50;;
11139;SDS011;5624;49.388;11.350;2023-03-18T06:24:56;25.00;;;13.00;;
11139;SDS011;5624;49.388;11.350;2023-03-18T06:27:22;12.27;;;7.93;;
11139;SDS011;5624;49.388;11.350;2023-03-18T06:29:48;10.30;;;6.70;;
11139;SDS011;5624;49.388;11.350;2023-03-18T06:32:14;9.67;;;6.07;;
11139;SDS011;5624;49.388;11.350;2023-03-18T06:34:40;12.30;;;7.27;;
11139;SDS011;5624;49.388;11.350;2023-03-18T06:37:06;10.27;;;6.80;;
11139;SDS011;5624;49.388;11.350;2023-03-18T06:39:31;13.33;;;8.47;;
11139;SDS011;5624;49.388;11.350;2023-03-18T06:41:58;10.13;;;6.77;;
11139;SDS011;5624;49.388;11.350;2023-03-18T06:44:24;20.13;;;11.47;;
11139;SDS011;5624;49.388;11.350;2023-03-18T06:46:50;16.37;;;7.90;;
11139;SDS011;5624;49.388;11.350;2023-03-18T06:49:15;16.30;;;7.60;;
11139;SDS011;5624;49.388;11.350;2023-03-18T06:51:41;15.90;;;8.07;;
11139;SDS011;5624;49.388;11.350;2023-03-18T06:54:08;10.10;;;6.37;;
11139;SDS011;5624;49.388;11.350;2023-03-18T06:56:34;9.63;;;5.93;;
11139;SDS011;5624;49.388;11.350;2023-03-18T06:59:03;11.00;;;6.57;;
11139;SDS011;5624;49.388;11.350;2023-03-18T07:01:29;11.07;;;6.40;;
11139;SDS011;5624;49.388;11.350;2023-03-18T07:03:56;8.93;;;5.87;;
11139;SDS011;5624;49.388;11.350;2023-03-18T07:06:23;12.70;;;6.73;;
11139;SDS011;5624;49.388;11.350;2023-03-18T07:08:48;13.97;;;6.80;;
11139;SDS011;5624;49.388;11.350;2023-03-18T07:11:14;22.03;;;12.33;;
11139;SDS011;5624;49.388;11.350;2023-03-18T07:13:40;13.37;;;7.33;;
11139;SDS011;5624;49.388;11.350;2023-03-18T07:16:06;10.40;;;6.90;;
11139;SDS011;5624;49.388;11.350;2023-03-18T07:18:32;9.03;;;6.03;;
11139;SDS011;5624;49.388;11.350;2023-03-18T07:20:57;8.57;;;6.10;;
11139;SDS011;5624;49.388;11.350;2023-03-18T07:23:23;11.27;;;5.87;;
11139;SDS011;5624;49.388;11.350;2023-03-18T07:25:49;8.90;;;5.03;;
11139;SDS011;5624;49.388;11.350;2023-03-18T07:28:15;10.17;;;5.10;;
11139;SDS011;5624;49.388;11.350;2023-03-18T07:30:41;8.10;;;5.10;;
11139;SDS011;5624;49.388;11.350;2023-03-18T07:33:07;10.17;;;6.40;;
11139;SDS011;5624;49.388;11.350;2023-03-18T07:35:32;10.00;;;5.47;;
11139;SDS011;5624;49.388;11.350;2023-03-18T07:37:58;7.33;;;5.20;;
11139;SDS011;5624;49.388;11.350;2023-03-18T07:40:24;11.47;;;6.17;;
11139;SDS011;5624;49.388;11.350;2023-03-18T07:42:50;14.03;;;5.70;;
11139;SDS011;5624;49.388;11.350;2023-03-18T07:45:15;9.23;;;5.30;;
11139;SDS011;5624;49.388;11.350;2023-03-18T07:47:42;12.10;;;6.17;;
11139;SDS011;5624;49.388;11.350;2023-03-18T07:50:08;12.10;;;6.00;;
11139;SDS011;5624;49.388;11.350;2023-03-18T07:52:34;8.47;;;5.53;;
11139;SDS011;5624;49.388;11.350;2023-03-18T07:55:01;10.27;;;6.40;;
11139;SDS011;5624;49.388;11.350;2023-03-18T07:57:28;9.53;;;5.93;;
11139;SDS011;5624;49.388;11.350;2023-03-18T07:59:54;9.27;;;5.90;;
11139;SDS011;5624;49.388;11.350;2023-03-18T08:02:20;10.33;;;6.13;;
11139;SDS011;5624;49.388;11.350;2023-03-18T08:04:45;10.67;;;6.17;;
11139;SDS011;5624;49.388;11.350;2023-03-18T08:07:11;12.17;;;6.27;;
11139;SDS011;5624;49.388;11.350;2023-03-18T08:09:37;8.43;;;5.70;;
11139;SDS011;5624;49.388;11.350;2023-03-18T08:12:02;8.83;;;6.43;;
11139;SDS011;5624;49.388;11.350;2023-03-18T08:14:28;7.83;;;5.83;;
11139;SDS011;5624;49.388;11.350;2023-03-18T08:16:55;9.23;;;6.10;;
11139;SDS011;5624;49.388;11.350;2023-03-18T08:19:20;8.93;;;5.80;;
11139;SDS011;5624;49.388;11.350;2023-03-18T08:21:46;9.83;;;5.93;;
11139;SDS011;5624;49.388;11.350;2023-03-18T08:24:12;8.67;;;5.67;;
11139;SDS011;5624;49.388;11.350;2023-03-18T08:26:38;10.97;;;6.87;;
11139;SDS011;5624;49.388;11.350;2023-03-18T08:29:04;8.87;;;6.23;;
11139;SDS011;5624;49.388;11.350;2023-03-18T08:31:30;9.50;;;6.83;;
11139;SDS011;5624;49.388;11.350;2023-03-18T08:33:56;10.13;;;6.40;;
11139;SDS011;5624;49.388;11.350;2023-03-18T08:36:22;10.37;;;6.37;;
11139;SDS011;5624;49.388;11.350;2023-03-18T08:38:50;9.87;;;6.03;;
11139;SDS011;5624;49.388;11.350;2023-03-18T08:41:22;10.00;;;6.20;;
11139;SDS011;5624;49.388;11.350;2023-03-18T08:43:50;9.43;;;6.30;;
11139;SDS011;5624;49.388;11.350;2023-03-18T08:46:16;14.77;;;6.17;;
11139;SDS011;5624;49.388;11.350;2023-03-18T08:48:42;8.33;;;5.87;;
11139;SDS011;5624;49.388;11.350;2023-03-18T08:51:08;9.50;;;5.93;;
11139;SDS011;5624;49.388;11.350;2023-03-18T08:53:35;9.25;;;5.72;;
11139;SDS011;5624;49.388;11.350;2023-03-18T08:56:01;8.30;;;5.60;;
11139;SDS011;5624;49.388;11.350;2023-03-18T08:58:29;9.52;;;5.68;;
11139;SDS011;5624;49.388;11.350;2023-03-18T09:00:55;8.35;;;5.57;;
11139;SDS011;5624;49.388;11.350;2023-03-18T09:03:21;9.98;;;5.95;;
11139;SDS011;5624;49.388;11.350;2023-03-18T09:05:48;8.57;;;6.00;;
11139;SDS011;5624;49.388;11.350;2023-03-18T09:08:17;8.07;;;5.22;;
11139;SDS011;5624;49.388;11.350;2023-03-18T09:10:46;8.82;;;5.35;;
11139;SDS011;5624;49.388;11.350;2023-03-18T09:13:14;7.13;;;4.90;;
11139;SDS011;5624;49.388;11.350;2023-03-18T09:15:40;8.40;;;5.32;;
11139;SDS011;5624;49.388;11.350;2023-03-18T09:18:07;8.32;;;5.72;;
11139;SDS011;5624;49.388;11.350;2023-03-18T09:20:32;9.05;;;5.55;;
11139;SDS011;5624;49.388;11.350;2023-03-18T09:22:58;7.53;;;5.30;;
11139;SDS011;5624;49.388;11.350;2023-03-18T09:25:24;9.25;;;5.63;;
11139;SDS011;5624;49.388;11.350;2023-03-18T09:27:51;6.57;;;4.60;;
11139;SDS011;5624;49.388;11.350;2023-03-18T09:30:16;6.57;;;4.97;;
11139;SDS011;5624;49.388;11.350;2023-03-18T09:32:43;9.52;;;5.05;;
11139;SDS011;5624;49.388;11.350;2023-03-18T09:35:09;7.72;;;4.93;;
11139;SDS011;5624;49.388;11.350;2023-03-18T09:37:35;7.65;;;4.45;;
11139;SDS011;5624;49.388;11.350;2023-03-18T09:40:02;8.20;;;4.50;;
11139;SDS011;5624;49.388;11.350;2023-03-18T09:45:13;6.90;;;4.38;;
11139;SDS011;5624;49.388;11.350;2023-03-18T09:47:54;7.35;;;4.20;;
11139;SDS011;5624;49.388;11.350;2023-03-18T09:51:09;6.28;;;4.35;;
11139;SDS011;5624;49.388;11.350;2023-03-18T09:56:22;5.45;;;4.10;;
11139;SDS011;5624;49.388;11.350;2023-03-18T10:01:21;7.47;;;4.85;;
11139;SDS011;5624;49.388;11.350;2023-03-18T10:06:20;7.53;;;3.92;;
11139;SDS011;5624;49.388;11.350;2023-03-18T10:11:50;8.75;;;3.65;;
11139;SDS011;5624;49.388;11.350;2023-03-18T10:19:56;14.38;;;8.38;;
11139;SDS011;5624;49.388;11.350;2023-03-18T10:22:30;8.02;;;4.20;;
11139;SDS011;5624;49.388;11.350;2023-03-18T10:27:59;6.63;;;3.05;;
11139;SDS011;5624;49.388;11.350;2023-03-18T10:30:58;4.38;;;2.40;;
11139;SDS011;5624;49.388;11.350;2023-03-18T10:36:17;6.40;;;2.47;;
11139;SDS011;5624;49.388;11.350;2023-03-18T10:38:48;5.40;;;2.72;;
11139;SDS011;5624;49.388;11.350;2023-03-18T10:41:28;6.50;;;2.78;;
11139;SDS011;5624;49.388;11.350;2023-03-18T10:43:56;4.70;;;2.40;;
11139;SDS011;5624;49.388;11.350;2023-03-18T10:46:38;4.68;;;2.42;;
11139;SDS011;5624;49.388;11.350;2023-03-18T10:49:10;5.65;;;2.20;;
11139;SDS011;5624;49.388;11.350;2023-03-18T10:51:52;4.05;;;2.47;;
11139;SDS011;5624;49.388;11.350;2023-03-18T10:54:34;4.13;;;2.17;;
11139;SDS011;5624;49.388;11.350;2023-03-18T10:57:18;6.93;;;2.63;;
11139;SDS011;5624;49.388;11.350;2023-03-18T10:59:45;6.28;;;2.60;;
11139;SDS011;5624;49.388;11.350;2023-03-18T11:02:19;5.93;;;2.28;;
11139;SDS011;5624;49.388;11.350;2023-03-18T11:04:58;5.97;;;2.50;;
11139;SDS011;5624;49.388;11.350;2023-03-18T11:07:29;3.08;;;2.03;;
11139;SDS011;5624;49.388;11.350;2023-03-18T11:09:55;4.45;;;2.40;;
11139;SDS011;5624;49.388;11.350;2023-03-18T11:12:38;5.43;;;2.25;;
11139;SDS011;5624;49.388;11.350;2023-03-18T11:15:05;4.88;;;2.35;;
11139;SDS011;5624;49.388;11.350;2023-03-18T11:17:34;3.72;;;2.10;;
11139;SDS011;5624;49.388;11.350;2023-03-18T11:22:32;5.60;;;2.38;;
11139;SDS011;5624;49.388;11.350;2023-03-18T11:25:20;4.53;;;2.63;;
11139;SDS011;5624;49.388;11.350;2023-03-18T11:27:57;7.28;;;3.00;;
11139;SDS011;5624;49.388;11.350;2023-03-18T11:30:27;4.50;;;2.25;;
11139;SDS011;5624;49.388;11.350;2023-03-18T11:32:56;5.20;;;2.47;;
11139;SDS011;5624;49.388;11.350;2023-03-18T11:35:38;4.43;;;2.15;;
11139;SDS011;5624;49.388;11.350;2023-03-18T11:38:15;4.70;;;1.88;;
11139;SDS011;5624;49.388;11.350;2023-03-18T11:40:51;4.13;;;1.92;;
11139;SDS011;5624;49.388;11.350;2023-03-18T11:43:20;4.68;;;1.63;;
11139;SDS011;5624;49.388;11.350;2023-03-18T11:45:53;5.05;;;2.00;;
11139;SDS011;5624;49.388;11.350;2023-03-18T12:12:45;9.50;;;2.47;;
11139;SDS011;5624;49.388;11.350;2023-03-18T12:26:07;3.88;;;1.90;;
11139;SDS011;5624;49.388;11.350;2023-03-18T12:34:06;3.05;;;1.50;;
11139;SDS011;5624;49.388;11.350;2023-03-18T12:37:51;5.07;;;2.10;;
11139;SDS011;5624;49.388;11.350;2023-03-18T12:45:31;5.20;;;2.03;;
11139;SDS011;5624;49.388;11.350;2023-03-18T12:48:03;6.93;;;2.15;;
11139;SDS011;5624;49.388;11.350;2023-03-18T12:50:40;5.53;;;2.47;;
11139;SDS011;5624;49.388;11.350;2023-03-18T12:55:38;4.95;;;2.20;;
11139;SDS011;5624;49.388;11.350;2023-03-18T13:00:44;3.60;;;2.03;;
11139;SDS011;5624;49.388;11.350;2023-03-18T13:06:26;4.25;;;1.80;;
11139;SDS011;5624;49.388;11.350;2023-03-18T13:11:53;3.47;;;1.85;;
11139;SDS011;5624;49.388;11.350;2023-03-18T13:17:12;4.78;;;1.70;;
11139;SDS011;5624;49.388;11.350;2023-03-18T13:19:42;4.05;;;1.83;;
11139;SDS011;5624;49.388;11.350;2023-03-18T13:25:01;5.65;;;1.90;;
11139;SDS011;5624;49.388;11.350;2023-03-18T13:44:03;5.18;;;1.98;;
11139;SDS011;5624;49.388;11.350;2023-03-18T13:46:36;3.55;;;1.77;;
11139;SDS011;5624;49.388;11.350;2023-03-18T13:49:02;5.50;;;1.70;;
11139;SDS011;5624;49.388;11.350;2023-03-18T13:53:58;5.90;;;2.30;;
11139;SDS011;5624;49.388;11.350;2023-03-18T13:56:43;4.32;;;2.35;;
11139;SDS011;5624;49.388;11.350;2023-03-18T14:04:52;4.70;;;2.70;;
11139;SDS011;5624;49.388;11.350;2023-03-18T14:07:18;5.70;;;2.72;;
11139;SDS011;5624;49.388;11.350;2023-03-18T14:15:03;4.75;;;2.58;;
11139;SDS011;5624;49.388;11.350;2023-03-18T14:22:41;5.18;;;2.20;;
11139;SDS011;5624;49.388;11.350;2023-03-18T14:27:44;5.05;;;2.28;;
11139;SDS011;5624;49.388;11.350;2023-03-18T14:33:00;2.40;;;1.80;;
11139;SDS011;5624;49.388;11.350;2023-03-18T14:41:20;3.88;;;2.00;;
11139;SDS011;5624;49.388;11.350;2023-03-18T14:46:31;4.38;;;2.20;;
11139;SDS011;5624;49.388;11.350;2023-03-18T14:49:01;4.28;;;2.13;;
11139;SDS011;5624;49.388;11.350;2023-03-18T14:51:48;3.85;;;1.80;;
11139;SDS011;5624;49.388;11.350;2023-03-18T14:54:19;5.60;;;2.17;;
11139;SDS011;5624;49.388;11.350;2023-03-18T14:56:54;4.13;;;2.20;;
11139;SDS011;5624;49.388;11.350;2023-03-18T14:59:24;5.07;;;2.10;;
11139;SDS011;5624;49.388;11.350;2023-03-18T15:01:50;3.40;;;2.25;;
11139;SDS011;5624;49.388;11.350;2023-03-18T15:04:20;7.00;;;2.85;;
11139;SDS011;5624;49.388;11.350;2023-03-18T15:06:53;5.20;;;2.28;;
11139;SDS011;5624;49.388;11.350;2023-03-18T15:09:24;4.05;;;2.28;;
11139;SDS011;5624;49.388;11.350;2023-03-18T15:11:52;4.85;;;2.17;;
11139;SDS011;5624;49.388;11.350;2023-03-18T15:14:23;4.43;;;2.08;;
11139;SDS011;5624;49.388;11.350;2023-03-18T15:17:03;3.05;;;2.03;;
11139;SDS011;5624;49.388;11.350;2023-03-18T15:19:36;3.38;;;2.20;;
11139;SDS011;5624;49.388;11.350;2023-03-18T15:22:02;4.65;;;2.00;;
11139;SDS011;5624;49.388;11.350;2023-03-18T15:24:30;3.10;;;2.00;;
11139;SDS011;5624;49.388;11.350;2023-03-18T15:27:04;3.70;;;2.40;;
11139;SDS011;5624;49.388;11.350;2023-03-18T15:29:33;4.15;;;2.30;;
11139;SDS011;5624;49.388;11.350;2023-03-18T15:32:42;4.75;;;2.35;;
11139;SDS011;5624;49.388;11.350;2023-03-18T15:34:56;3.20;;;1.98;;
11139;SDS011;5624;49.388;11.350;2023-03-18T15:37:43;6.57;;;2.17;;
11139;SDS011;5624;49.388;11.350;2023-03-18T15:42:48;3.60;;;2.15;;
11139;SDS011;5624;49.388;11.350;2023-03-18T15:45:19;4.30;;;2.03;;
11139;SDS011;5624;49.388;11.350;2023-03-18T15:47:48;3.72;;;2.20;;
11139;SDS011;5624;49.388;11.350;2023-03-18T15:52:43;3.22;;;2.33;;
11139;SDS011;5624;49.388;11.350;2023-03-18T15:55:29;3.65;;;2.00;;
11139;SDS011;5624;49.388;11.350;2023-03-18T15:58:02;3.58;;;1.90;;
11139;SDS011;5624;49.388;11.350;2023-03-18T16:00:30;4.95;;;2.47;;
11139;SDS011;5624;49.388;11.350;2023-03-18T16:02:58;4.32;;;2.65;;
11139;SDS011;5624;49.388;11.350;2023-03-18T16:05:24;3.50;;;2.20;;
11139;SDS011;5624;49.388;11.350;2023-03-18T16:07:51;6.20;;;2.33;;
11139;SDS011;5624;49.388;11.350;2023-03-18T16:10:18;5.40;;;2.00;;
11139;SDS011;5624;49.388;11.350;2023-03-18T16:12:47;3.88;;;1.73;;
11139;SDS011;5624;49.388;11.350;2023-03-18T16:15:16;6.53;;;3.00;;
11139;SDS011;5624;49.388;11.350;2023-03-18T16:17:49;6.00;;;3.63;;
11139;SDS011;5624;49.388;11.350;2023-03-18T16:20:23;4.10;;;3.00;;
11139;SDS011;5624;49.388;11.350;2023-03-18T16:22:51;5.40;;;2.40;;
11139;SDS011;5624;49.388;11.350;2023-03-18T16:25:17;6.30;;;3.95;;
11139;SDS011;5624;49.388;11.350;2023-03-18T16:27:44;9.23;;;6.95;;
11139;SDS011;5624;49.388;11.350;2023-03-18T16:32:44;18.17;;;16.58;;
11139;SDS011;5624;49.388;11.350;2023-03-18T16:35:14;9.57;;;6.55;;
11139;SDS011;5624;49.388;11.350;2023-03-18T16:37:43;4.45;;;3.60;;
11139;SDS011;5624;49.388;11.350;2023-03-18T16:40:15;4.28;;;2.90;;
11139;SDS011;5624;49.388;11.350;2023-03-18T16:42:43;3.65;;;2.63;;
11139;SDS011;5624;49.388;11.350;2023-03-18T16:45:15;4.15;;;2.95;;
11139;SDS011;5624;49.388;11.350;2023-03-18T16:47:43;4.82;;;2.55;;
11139;SDS011;5624;49.388;11.350;2023-03-18T16:50:14;4.43;;;2.70;;
11139;SDS011;5624;49.388;11.350;2023-03-18T16:52:46;11.27;;;5.18;;
11139;SDS011;5624;49.388;11.350;2023-03-18T16:55:12;8.32;;;6.07;;
11139;SDS011;5624;49.388;11.350;2023-03-18T16:57:39;6.85;;;4.93;;
11139;SDS011;5624;49.388;11.350;2023-03-18T17:00:49;8.43;;;5.00;;
11139;SDS011;5624;49.388;11.350;2023-03-18T17:02:57;7.55;;;4.70;;
11139;SDS011;5624;49.388;11.350;2023-03-18T17:05:23;8.00;;;4.32;;
11139;SDS011;5624;49.388;11.350;2023-03-18T17:07:49;12.63;;;5.65;;
11139;SDS011;5624;49.388;11.350;2023-03-18T17:10:19;8.38;;;5.25;;
11139;SDS011;5624;49.388;11.350;2023-03-18T17:12:51;7.63;;;5.05;;
11139;SDS011;5624;49.388;11.350;2023-03-18T17:15:20;8.35;;;5.45;;
11139;SDS011;5624;49.388;11.350;2023-03-18T17:17:55;5.90;;;3.50;;
11139;SDS011;5624;49.388;11.350;2023-03-18T17:20:24;5.47;;;3.25;;
11139;SDS011;5624;49.388;11.350;2023-03-18T17:22:51;8.20;;;2.50;;
11139;SDS011;5624;49.388;11.350;2023-03-18T17:25:18;7.18;;;3.00;;
11139;SDS011;5624;49.388;11.350;2023-03-18T17:27:45;6.45;;;3.03;;
11139;SDS011;5624;49.388;11.350;2023-03-18T17:33:00;6.43;;;3.83;;